Informes de METARS cercanos

 

LEAL - Alicante/El Alte, Spain
Distance from station: SSE 60km
Actualización: 24/06/2024 17:00
Poco nuboso
Poco nuboso
 Viento del ESE
Viento: ESE 17 km/h
Temperatura: 25°C
Rocío: 17°C
Humedad: 61%
Barómetro: 1013 hPa
Clouds: Poco nuboso
Visibility: 10 km
Cloud details: Poco nuboso 853 m
2024/06/24 15:00 LEAL 241500Z 11009KT 060V160 9999 FEW028 25/17 Q1013 NOSIG
LEVC - Valencia (civ/Mi, Spain
Distance from station: NNE 84km
Actualización: 24/06/2024 17:00
Poco nuboso
Poco nuboso
 Viento del ESE
Viento: ESE 24 km/h
Temperatura: 26°C
Rocío: 17°C
Humedad: 58%
Barómetro: 1012 hPa
Clouds: Poco nuboso
Visibility: 10 km
Cloud details: Poco nuboso 914 m
2024/06/24 15:00 LEVC 241500Z 11013KT 080V150 9999 FEW030 26/17 Q1012 NOSIG
 
LEAB - Albacete (civ/Mi, Spain
Distance from station: O 95km
Actualización: 24/06/2024 17:00
Despejado
Despejado
 Viento del varies
Viento: varies 9 km/h
Temperatura: 29°C
Rocío: 13°C
Humedad: 37%
Barómetro: 1013 hPa
Resumen: Despejado
Visibility: greater than 10 km
2024/06/24 15:00 LEAB 241500Z VRB05KT CAVOK 29/13 Q1013 NOSIG
LERI - Alcantarilla(Sp-, Spain
Distance from station: SSO 100km
Actualización: 24/06/2024 17:00
Poco nuboso
Poco nuboso
 Viento del ESE
Viento: ESE 24 km/h
Temperatura: 29°C
Heat Index: 28°C
Rocío: 14°C
Humedad: 40%
Barómetro: 1012 hPa
Clouds: Poco nuboso
Visibility: 10 km
Cloud details: Poco nuboso 1524 m
2024/06/24 15:00 LERI 241500Z 12013KT 090V150 9999 FEW050 29/14 Q1012 NOSIG
 
LELC - San Javier(Mil/C, Spain
Distance from station: S 113km
Actualización: 24/06/2024 17:00
Despejado
Despejado
 Viento del E
Viento: E 17 km/h
Temperatura: 26°C
Rocío: 18°C
Humedad: 61%
Barómetro: 1013 hPa
Resumen: Despejado
Visibility: greater than 10 km
2024/06/24 15:00 LELC 241500Z 10009KT 040V140 CAVOK 26/18 Q1013 NOSIG
LEIB - Ibiza/Es Codola, Spain
Distance from station: E 186km
Actualización: 24/06/2024 17:00
Poco nuboso
Poco nuboso
 Viento del SE
Viento: SE 13 km/h
Temperatura: 26°C
Rocío: 13°C
Humedad: 45%
Barómetro: 1013 hPa
Clouds: Poco nuboso
Visibility: 10 km
Cloud details: Poco nuboso 1219 m
2024/06/24 15:00 LEIB 241500Z 13007KT 080V180 9999 FEW040 26/13 Q1013 NOSIG
 
LEAM - Almeria Airport, Spain
Distance from station: SSO 256km
Actualización: 24/06/2024 17:00
Despejado
Despejado
 Viento del E
Viento: E 28 km/h
Temperatura: 31°C
Heat Index: 32°C
Rocío: 17°C
Humedad: 43%
Barómetro: 1010 hPa
Resumen: Despejado
Visibility: greater than 10 km
2024/06/24 15:00 LEAM 241500Z 10015KT CAVOK 31/17 Q1010
LEMD - Madrid/Barajas, Spain
Distance from station: NO 305km
Actualización: 24/06/2024 17:00
Despejado
Despejado
 Viento del O
Viento: O 7 km/h
Temperatura: 32°C
Rocío: 11°C
Humedad: 27%
Barómetro: 1011 hPa
Resumen: Despejado
Visibility: greater than 10 km
2024/06/24 15:00 LEMD 241500Z 26004KT CAVOK 32/11 Q1011 NOSIG
 
LEPA - Palma De Mallorc, Spain
Distance from station: ENE 313km
Actualización: 24/06/2024 17:00
Poco nuboso
Poco nuboso
 Viento del OSO
Viento: OSO 20 km/h
Temperatura: 26°C
Rocío: 16°C
Humedad: 54%
Barómetro: 1013 hPa
Clouds: Poco nuboso
Visibility: 10 km
Cloud details: Poco nuboso 610 m
Poco nuboso 1219 m
2024/06/24 15:00 LEPA 241500Z 24011KT 210V270 9999 FEW020 FEW040TCU 26/16 Q1013 NOSIG